TimeCDT,TemperatureF,Dew PointF,Humidity,Sea Level PressureIn,VisibilityMPH,Wind Direction,Wind SpeedMPH,Gust SpeedMPH,PrecipitationIn,Events,Conditions,WindDirDegrees,DateUTC
12:53 AM,75.9,68.0,76,30.25,10.0,Calm,Calm,-,N/A,,Clear,0,2013-07-17 05:53:00
1:53 AM,75.0,66.9,76,30.25,10.0,Calm,Calm,-,N/A,,Partly Cloudy,0,2013-07-17 06:53:00
2:53 AM,75.9,66.9,74,30.25,10.0,Calm,Calm,-,N/A,,Clear,0,2013-07-17 07:53:00
3:53 AM,73.9,66.9,79,30.25,10.0,Calm,Calm,-,N/A,,Clear,0,2013-07-17 08:53:00
4:53 AM,73.0,66.9,81,30.26,10.0,SSW,3.5,-,N/A,,Clear,200,2013-07-17 09:53:00
5:53 AM,72.0,66.9,84,30.27,10.0,SE,3.5,-,N/A,,Clear,130,2013-07-17 10:53:00
6:53 AM,73.0,66.9,81,30.28,10.0,Calm,Calm,-,N/A,,Clear,0,2013-07-17 11:53:00
7:53 AM,75.9,68.0,76,30.29,10.0,Calm,Calm,-,N/A,,Clear,0,2013-07-17 12:53:00
8:53 AM,81.0,69.1,67,30.30,10.0,Calm,Calm,-,N/A,,Clear,0,2013-07-17 13:53:00
9:53 AM,84.9,68.0,57,30.30,10.0,ENE,3.5,-,N/A,,Clear,70,2013-07-17 14:53:00
10:53 AM,87.1,68.0,53,30.30,10.0,Calm,Calm,-,N/A,,Clear,0,2013-07-17 15:53:00
11:53 AM,89.1,68.0,50,30.29,10.0,Variable,5.8,-,N/A,,Clear,0,2013-07-17 16:53:00
12:53 PM,91.0,68.0,47,30.28,10.0,South,5.8,-,N/A,,Partly Cloudy,180,2013-07-17 17:53:00
1:53 PM,91.0,66.9,45,30.27,10.0,South,4.6,-,N/A,,Partly Cloudy,170,2013-07-17 18:53:00
2:53 PM,91.0,66.9,45,30.24,10.0,Calm,Calm,-,N/A,,Scattered Clouds,0,2013-07-17 19:53:00
3:53 PM,93.9,64.0,37,30.22,10.0,SSE,10.4,-,N/A,,Partly Cloudy,160,2013-07-17 20:53:00
4:53 PM,93.9,66.9,41,30.19,10.0,ESE,11.5,-,N/A,,Partly Cloudy,110,2013-07-17 21:53:00
5:53 PM,93.0,63.0,37,30.18,10.0,South,6.9,-,N/A,,Partly Cloudy,180,2013-07-17 22:53:00
6:53 PM,93.9,64.0,37,30.17,10.0,SSE,12.7,-,N/A,,Clear,160,2013-07-17 23:53:00
7:53 PM,90.0,66.0,45,30.17,10.0,SE,10.4,-,N/A,,Clear,140,2013-07-18 00:53:00
8:53 PM,86.0,66.0,51,30.17,10.0,SE,5.8,-,N/A,,Clear,130,2013-07-18 01:53:00
9:53 PM,84.9,66.0,53,30.17,10.0,SSE,4.6,-,N/A,,Clear,160,2013-07-18 02:53:00
10:53 PM,79.0,66.9,66,30.18,10.0,Calm,Calm,-,N/A,,Clear,0,2013-07-18 03:53:00
11:53 PM,78.1,68.0,71,30.17,10.0,Calm,Calm,-,N/A,,Clear,0,2013-07-18 04:53:00